• Join FlightAware (Why Join?)
  • Login
  • US Flag 
02:55AM EDT


 

Airport Tracker/Info


-or-


 

Live Flight TrackerFlight Track Log ✈ N30TL ✈ 21-Apr-2013 ✈ KCLL - KCRP

Flight Track Log - Related Links

Times and Time Zones

All times are in EDT time to prevent confusion due to time zone crossing. See the N30TL flight status page for this flight to view local times or setup timezone preferences in your user account.

Time Position Orientation Groundspeed Altitude Reporting Facility
EDT Latitude Longitude Course Direction KTS MPH feet Rate Location/Type
03:48PM 30.5486 -96.3517 165° South 205 236 2,500  Level Houston Center
03:49PM 30.4683 -96.3581 184° South 248 285 6,100 3,420 Climbing Houston Center
03:50PM 30.3925 -96.3781 193° South 273 314 9,600 3,240 Climbing Houston Center
03:51PM 30.3150 -96.3983 193° South 280 322 12,900 2,700 Climbing Houston Center
03:52PM 30.2278 -96.4192 192° South 309 356 15,200 1,920 Climbing Houston Center
03:53PM 30.1300 -96.4444 193° South 347 399 17,000 840 Climbing Houston Center
03:54PM 30.0286 -96.4697 192° South 389 448 17,000 360 Level Houston Center
03:55PM 29.8931 -96.5042 192° South 412 474 17,800 1,200 Climbing Houston Center
03:56PM 29.7811 -96.5314 192° South 411 473 19,600 1,740 Climbing Houston Center
03:57PM 29.6708 -96.5592 192° South 406 467 21,500 1,140 Climbing Houston Center
03:58PM 29.5561 -96.5897 193° South 417 480 22,000 240 Climbing Houston Center
03:59PM 29.4453 -96.6492 205° Southwest 434 499 22,000  Level Houston Center
04:00PM 29.3306 -96.7081 204° Southwest 442 509 22,000  Level Houston Center
04:01PM 29.2161 -96.7667 204° Southwest 439 505 22,000  Level Houston Center
04:02PM 29.1044 -96.8242 204° Southwest 436 502 22,000  Level Houston Center
04:03PM 28.9733 -96.8925 205° Southwest 429 494 22,000  Level Houston Center
04:04PM 28.8636 -96.9494 204° Southwest 432 497 22,000 -60 Level Houston Center
04:05PM 28.7544 -97.0044 204° Southwest 429 494 21,900 -1,020 Descending Houston Center
04:07PM 28.6486 -97.0583 204° Southwest 418 481 19,900 -2,160 Descending Houston Center
04:08PM 28.5461 -97.1097 204° Southwest 406 467 17,400 -2,460 Descending Houston Center
04:09PM 28.4450 -97.1628 205° Southwest 401 461 14,900 -2,700 Descending Houston Center
04:09PM 28.3422 -97.2147 204° Southwest 386 444 12,300 -2,400 Descending Houston Center
04:11PM 28.2597 -97.2692 210° Southwest 324 373 10,400 -1,680 Descending Houston Center
04:12PM 28.2028 -97.3269 222° Southwest 285 328 9,000 -1,440 Descending Houston Center
04:13PM 28.1389 -97.3953 223° Southwest 283 326 7,400 -1,320 Descending Houston Center
04:14PM 28.0800 -97.4556 222° Southwest 274 315 6,300 -1,200 Descending Houston Center
04:15PM 28.0311 -97.5075 223° Southwest 271 312 5,200 -1,140 Descending Houston Center
04:15PM 28.0267 -97.5108 214° Southwest 270 311 5,000 -1,260 Descending Houston Center
04:16PM 27.9664 -97.5678 220° Southwest 277 319 3,600 -1,500 Descending Houston Center
04:17PM 27.8950 -97.5736 184° South 245 282 2,200 -840 Descending Houston Center
04:18PM 27.8397 -97.5669 174° South 196 226 2,100 -600 Descending Houston Center
04:19PM 27.8083 -97.5497 154° Southeast 127 146 1,100 -1,020 Descending Houston Center
04:21PM 27.7667 -97.5000 214° Southwest  Level FlightAware Approximate
04:28PM 27.7704 -97.5012 214° Southwest  Level Estimated